createdAt,value
2022-11-05T00:00:39.069Z,10.64
2022-11-05T00:06:00.285Z,10.79
2022-11-05T00:11:02.686Z,10.72
2022-11-05T00:16:23.552Z,10.46
2022-11-05T00:21:44.830Z,10.59
2022-11-05T00:26:47.153Z,10.92
2022-11-05T00:31:49.570Z,10.70
2022-11-05T00:36:52.155Z,11.12
2022-11-05T00:42:13.213Z,11.13
2022-11-05T00:47:34.419Z,10.81
2022-11-05T00:52:55.639Z,10.97
2022-11-05T00:57:58.447Z,11.10
2022-11-05T01:03:03.733Z,11.15
2022-11-05T01:08:06.155Z,11.26
2022-11-05T01:13:12.970Z,11.08
2022-11-05T01:18:15.834Z,11.20
2022-11-05T01:23:18.770Z,10.68
2022-11-05T01:28:21.432Z,10.36
2022-11-05T01:33:24.442Z,10.35
2022-11-05T01:38:26.802Z,10.45
2022-11-05T01:43:47.501Z,10.95
2022-11-05T01:48:56.136Z,11.40
2022-11-05T01:54:06.165Z,11.08
2022-11-05T01:59:28.954Z,11.09
2022-11-05T02:04:39.512Z,10.43
2022-11-05T02:09:53.718Z,10.14
2022-11-05T02:14:57.701Z,9.94
2022-11-05T02:20:02.847Z,9.94
2022-11-05T02:25:20.093Z,10.31
2022-11-05T02:30:33.462Z,10.03
2022-11-05T02:36:00.594Z,10.46
2022-11-05T02:41:09.079Z,11.52
2022-11-05T02:46:50.866Z,11.56
2022-11-05T02:51:56.081Z,11.80
2022-11-05T02:57:00.961Z,11.94
2022-11-05T03:02:04.648Z,11.09
2022-11-05T03:07:25.054Z,10.64
2022-11-05T03:12:30.403Z,10.89
2022-11-05T03:17:41.999Z,11.75
2022-11-05T03:23:20.106Z,10.72
2022-11-05T03:28:27.881Z,10.39
2022-11-05T03:33:33.770Z,10.23
2022-11-05T03:38:41.135Z,10.29
2022-11-05T03:43:49.203Z,10.04
2022-11-05T03:48:55.380Z,9.95
2022-11-05T03:54:01.091Z,9.97
2022-11-05T03:59:06.403Z,9.75
2022-11-05T04:04:09.958Z,9.86
2022-11-05T04:09:31.079Z,9.86
2022-11-05T04:14:33.483Z,9.76
2022-11-05T04:20:02.638Z,9.80
2022-11-05T04:25:05.321Z,9.79
2022-11-05T04:30:20.279Z,9.66
2022-11-05T04:35:22.842Z,9.94
2022-11-05T04:40:25.607Z,9.90
2022-11-05T04:45:30.885Z,9.71
2022-11-05T04:50:34.318Z,9.61
2022-11-05T04:55:36.702Z,9.82
2022-11-05T05:00:39.307Z,10.03
2022-11-05T05:05:41.813Z,9.99
2022-11-05T05:10:44.158Z,9.76
2022-11-05T05:15:46.535Z,9.66
2022-11-05T05:21:07.504Z,9.49
2022-11-05T05:26:10.511Z,9.89
2022-11-05T05:31:12.878Z,9.93
2022-11-05T05:36:15.286Z,10.01
2022-11-05T05:41:18.409Z,10.02
2022-11-05T05:46:20.743Z,10.84
2022-11-05T05:51:23.094Z,11.64
2022-11-05T05:56:25.445Z,11.97
2022-11-05T06:01:27.841Z,12.21
2022-11-05T06:06:30.279Z,11.76
2022-11-05T06:11:32.714Z,12.70
2022-11-05T06:16:35.966Z,14.17
2022-11-05T06:21:38.609Z,14.49
2022-11-05T06:26:43.295Z,14.66
2022-11-05T06:31:45.640Z,14.88
2022-11-05T06:36:48.009Z,15.21
2022-11-05T06:42:16.674Z,13.60
2022-11-05T06:47:12.707Z,13.91
2022-11-05T06:52:16.489Z,13.45
2022-11-05T06:57:18.829Z,14.03
2022-11-05T07:02:21.206Z,14.47
2022-11-05T07:07:23.650Z,14.91
2022-11-05T07:12:25.996Z,15.12
2022-11-05T07:17:28.315Z,15.34
2022-11-05T07:22:30.730Z,15.40
2022-11-05T07:27:40.727Z,15.53
2022-11-05T07:32:43.105Z,15.60
2022-11-05T07:37:47.707Z,15.69
2022-11-05T07:42:54.012Z,15.16
2022-11-05T07:47:59.127Z,14.07
2022-11-05T07:53:10.781Z,14.79
2022-11-05T07:58:14.293Z,14.36
2022-11-05T08:03:18.739Z,15.02
2022-11-05T08:08:21.694Z,14.33
2022-11-05T08:13:24.057Z,15.02
2022-11-05T08:18:32.550Z,16.52
2022-11-05T08:23:34.906Z,17.27
2022-11-05T08:28:37.222Z,17.05
2022-11-05T08:33:39.812Z,17.26
2022-11-05T08:38:42.258Z,17.17
2022-11-05T08:43:44.605Z,16.28
2022-11-05T08:48:47.025Z,15.89
2022-11-05T08:53:49.446Z,15.52
2022-11-05T08:58:51.855Z,14.75
2022-11-05T09:03:54.244Z,14.86
2022-11-05T09:08:56.838Z,14.24
2022-11-05T09:13:59.222Z,14.63
2022-11-05T09:19:03.430Z,15.31
2022-11-05T09:24:06.171Z,14.39
2022-11-05T09:29:14.068Z,13.73
2022-11-05T09:34:16.828Z,14.21
2022-11-05T09:39:19.186Z,14.78
2022-11-05T09:44:38.049Z,15.41
2022-11-05T09:49:44.462Z,14.27
2022-11-05T09:54:50.244Z,14.37
2022-11-05T09:59:57.158Z,14.45
2022-11-05T10:05:10.007Z,13.56
2022-11-05T10:10:30.689Z,13.29
2022-11-05T10:15:39.239Z,13.58
2022-11-05T10:20:42.646Z,14.12
2022-11-05T10:25:48.665Z,14.53
2022-11-05T10:31:00.531Z,15.09
2022-11-05T10:36:10.240Z,15.38
2022-11-05T10:41:21.618Z,15.43
2022-11-05T10:46:53.860Z,14.38
2022-11-05T10:52:03.932Z,14.53
2022-11-05T10:57:30.861Z,15.09
2022-11-05T11:02:36.241Z,15.15
2022-11-05T11:07:39.126Z,13.54
2022-11-05T11:12:43.786Z,13.45
2022-11-05T11:17:46.263Z,14.22
2022-11-05T11:23:05.879Z,14.73
2022-11-05T11:28:20.265Z,15.91
2022-11-05T11:33:27.360Z,16.64
2022-11-05T11:38:36.358Z,16.79
2022-11-05T11:43:43.661Z,16.44
2022-11-05T11:48:48.194Z,15.74
2022-11-05T11:53:50.651Z,16.29
2022-11-05T11:58:55.206Z,15.92
2022-11-05T12:04:24.765Z,16.07
2022-11-05T12:09:45.997Z,17.19
2022-11-05T12:14:48.302Z,17.34
2022-11-05T12:20:18.170Z,17.41
2022-11-05T12:25:27.654Z,18.42
2022-11-05T12:30:46.856Z,17.28
2022-11-05T12:35:57.940Z,16.18
2022-11-05T12:41:19.160Z,16.17
2022-11-05T12:46:34.862Z,15.55
2022-11-05T12:51:52.298Z,13.78
2022-11-05T12:57:01.034Z,13.57
2022-11-05T13:02:20.467Z,12.69
2022-11-05T13:07:34.072Z,11.99
2022-11-05T13:12:40.964Z,11.48
2022-11-05T13:17:55.290Z,11.40
2022-11-05T13:23:19.010Z,11.60
2022-11-05T13:28:28.057Z,11.68
2022-11-05T13:33:40.245Z,12.07
2022-11-05T13:39:06.991Z,11.56
2022-11-05T13:44:51.865Z,11.53
2022-11-05T13:50:21.329Z,11.61
2022-11-05T13:55:32.586Z,11.93
2022-11-05T14:00:57.202Z,11.71
2022-11-05T14:06:10.247Z,11.48
2022-11-05T14:11:33.069Z,11.43
2022-11-05T14:17:14.249Z,11.38
2022-11-05T14:22:48.940Z,10.93
2022-11-05T14:27:54.332Z,10.72
2022-11-05T14:33:04.799Z,10.61
2022-11-05T14:38:23.789Z,10.61
2022-11-05T14:43:29.171Z,10.59
2022-11-05T14:48:35.418Z,10.61
2022-11-05T14:53:40.376Z,10.50
2022-11-05T14:58:44.583Z,10.40
2022-11-05T15:04:19.709Z,10.67
2022-11-05T15:09:33.583Z,10.62
2022-11-05T15:14:52.939Z,10.59
2022-11-05T15:20:01.783Z,10.60
2022-11-05T15:25:14.515Z,10.45
2022-11-05T15:30:20.289Z,10.65
2022-11-05T15:35:28.866Z,10.87
2022-11-05T15:40:36.020Z,10.89
2022-11-05T15:45:38.683Z,10.64
2022-11-05T15:50:41.718Z,10.52
2022-11-05T15:55:55.758Z,10.57
2022-11-05T16:00:58.335Z,10.50
2022-11-05T16:06:02.223Z,10.67
2022-11-05T16:11:04.789Z,10.55
2022-11-05T16:16:16.092Z,10.53
2022-11-05T16:21:22.706Z,10.29
2022-11-05T16:32:14.689Z,10.03
2022-11-05T16:37:20.712Z,9.93
2022-11-05T16:42:23.071Z,9.93
2022-11-05T16:47:26.462Z,9.91
2022-11-05T16:52:29.093Z,9.74
2022-11-05T16:57:33.105Z,9.59
2022-11-05T17:02:35.648Z,9.53
2022-11-05T17:07:41.375Z,9.52
2022-11-05T17:12:44.138Z,9.51
2022-11-05T17:17:47.034Z,9.96
2022-11-05T17:22:49.393Z,9.75
2022-11-05T17:27:52.292Z,9.41
2022-11-05T17:32:54.765Z,9.47
2022-11-05T17:37:57.468Z,9.32
2022-11-05T17:42:59.925Z,9.28
2022-11-05T17:48:05.780Z,9.14
2022-11-05T17:53:08.492Z,9.90
2022-11-05T17:58:11.491Z,10.17
2022-11-05T18:03:15.247Z,10.04
2022-11-05T18:08:17.841Z,9.36
2022-11-05T18:13:20.190Z,9.75
2022-11-05T18:18:22.948Z,9.99
2022-11-05T18:23:25.613Z,10.02
2022-11-05T18:28:31.091Z,10.16
2022-11-05T18:33:33.601Z,9.76
2022-11-05T18:38:36.096Z,9.62
2022-11-05T18:43:38.674Z,9.27
2022-11-05T18:48:41.252Z,9.07
2022-11-05T18:53:43.635Z,9.75
2022-11-05T18:58:46.756Z,9.66
2022-11-05T19:03:51.334Z,9.60
2022-11-05T19:08:55.211Z,9.25
2022-11-05T19:13:57.570Z,9.06
2022-11-05T19:19:01.890Z,8.96
2022-11-05T19:24:04.614Z,8.61
2022-11-05T19:29:07.223Z,8.13
2022-11-05T19:34:09.943Z,7.80
2022-11-05T19:39:14.392Z,8.55
2022-11-05T19:44:16.895Z,9.16
2022-11-05T19:49:19.317Z,8.77
2022-11-05T19:54:21.860Z,8.54
2022-11-05T19:59:24.343Z,8.83
2022-11-05T20:04:26.737Z,8.98
2022-11-05T20:09:29.110Z,8.44
2022-11-05T20:14:31.446Z,8.25
2022-11-05T20:19:33.830Z,8.48
2022-11-05T20:24:36.571Z,8.56
2022-11-05T20:29:39.310Z,8.86
2022-11-05T20:34:42.131Z,8.75
2022-11-05T20:39:44.532Z,8.19
2022-11-05T20:44:46.894Z,7.98
2022-11-05T20:49:49.268Z,7.85
2022-11-05T20:54:53.648Z,7.95
2022-11-05T20:59:56.045Z,7.83
2022-11-05T21:04:58.626Z,7.74
2022-11-05T21:10:00.953Z,7.56
2022-11-05T21:15:03.530Z,7.55
2022-11-05T21:20:06.413Z,7.49
2022-11-05T21:25:09.990Z,7.33
2022-11-05T21:30:13.140Z,7.29
2022-11-05T21:35:16.088Z,7.21
2022-11-05T21:40:18.504Z,7.42
2022-11-05T21:45:20.867Z,7.51
2022-11-05T21:50:43.694Z,7.52
2022-11-05T21:56:04.821Z,7.42
2022-11-05T22:01:07.359Z,7.38
2022-11-05T22:06:10.330Z,7.36
2022-11-05T22:11:12.695Z,7.39
2022-11-05T22:16:15.054Z,7.51
2022-11-05T22:21:18.723Z,7.86
2022-11-05T22:26:21.305Z,8.24
2022-11-05T22:31:23.738Z,7.71
2022-11-05T22:36:26.210Z,7.67
2022-11-05T22:41:29.138Z,7.94
2022-11-05T22:46:31.549Z,8.00
2022-11-05T22:51:35.722Z,8.08
2022-11-05T22:56:40.370Z,8.38
2022-11-05T23:01:44.920Z,8.47
2022-11-05T23:07:06.235Z,8.32
2022-11-05T23:12:20.567Z,8.21
2022-11-05T23:17:42.214Z,8.57
2022-11-05T23:23:03.079Z,8.75
2022-11-05T23:28:10.005Z,8.58
2022-11-05T23:33:16.841Z,8.68
2022-11-05T23:38:34.258Z,8.40
2022-11-05T23:43:55.152Z,7.87
2022-11-05T23:48:57.553Z,7.66
2022-11-05T23:53:59.888Z,7.88
2022-11-05T23:59:02.302Z,7.51
